Bowman Field
KLOU : rendu visible

Aérodrome :











RETROUVEZ-NOUS SUR...

 
LOGIN :

S'inscrire | Disclaimer

   EN    FR    IT 

 









Légende :    VFR   VFR Marginal   IFR   IFR Intensif   IFR Très Intensif
Visi : 
Plafond : 
>= 8 km
>= 3000ft
5 à 8 km
1000 à 3000 ft
1500m à 5 km
500 à 1000 ft
800 à 1500m
200 à 500 ft
< 800m
< 200 ft
Symboles :   Orages  Brouillard  Fortes neiges  Fortes précipitations  Vent > 20 kt






- Altitude de l'aérodrome : 546 ft


KLOU - Bowman Field

DERNIER METAR :
  • 241353Z 13008KT 4SM -RA BR SCT006 BKN021 OVC028 07/05 A2999 RMK AO2 SLP155 P0003 T00670050

METARs EXPIRÉS :
  • 241334Z 15006KT 5SM -RA BR SCT008 BKN024 OVC047 07/05 A3000 RMK AO2 P0002 T00670050
  • 241253Z 15005KT 5SM -RA BR FEW007 BKN031 OVC041 07/05 A3000 RMK AO2 SLP159 P0004 T00670050
  • 241153Z 17007KT 7SM -RA OVC036 07/04 A3000 RMK AO2 SLP161 P0004 60007 70007 T00670044 10083 20067 53001
  • 241131Z AUTO 18006KT 10SM -RA FEW013 OVC030 07/04 A3001 RMK AO2 P0002 T00670044

TAF N/A



MET'MAP, la Météo Aéronautique d'un coup d'oeil ! - Copyright ORBIFLY Décembre 2007 - Disclaimer

ORBIFLY MET'MAP TEAM :

Programmation & Développement : Alexandra Zaïnal
Sur une idée originale de : Baudouin d'Aumeries
Assistance à la programmation : Marc-Olivier Méhu
Soutien technique & logistique : Manuel Goepfert

Contact : metmap@orbifly.com




SOURCES & CREDITS :

   NOAA       Earth
Advisory